createdAt,value
2019-06-20T00:01:09.287Z,18.43
2019-06-20T00:03:39.195Z,18.47
2019-06-20T00:06:08.533Z,18.50
2019-06-20T00:08:38.024Z,18.69
2019-06-20T00:11:07.344Z,18.36
2019-06-20T00:13:36.655Z,18.31
2019-06-20T00:16:06.050Z,18.45
2019-06-20T00:18:35.481Z,18.17
2019-06-20T00:21:04.943Z,18.06
2019-06-20T00:23:34.315Z,18.00
2019-06-20T00:26:03.780Z,18.25
2019-06-20T00:28:33.087Z,18.23
2019-06-20T00:31:04.062Z,18.16
2019-06-20T00:33:33.414Z,17.92
2019-06-20T00:36:02.722Z,18.10
2019-06-20T00:38:32.213Z,18.50
2019-06-20T00:41:01.531Z,18.03
2019-06-20T00:43:30.847Z,18.38
2019-06-20T00:46:00.186Z,18.31
2019-06-20T00:48:29.638Z,18.45
2019-06-20T00:50:58.961Z,18.27
2019-06-20T00:53:28.595Z,18.23
2019-06-20T00:55:57.838Z,18.52
2019-06-20T00:58:28.341Z,18.37
2019-06-20T01:00:58.775Z,18.44
2019-06-20T01:03:28.295Z,18.44
2019-06-20T01:05:57.631Z,18.36
2019-06-20T01:08:28.060Z,18.61
2019-06-20T01:10:57.415Z,18.55
2019-06-20T01:13:33.678Z,18.63
2019-06-20T01:15:58.633Z,18.77
2019-06-20T01:18:28.005Z,18.68
2019-06-20T01:20:57.375Z,18.71
2019-06-20T01:23:26.807Z,18.07
2019-06-20T01:25:57.086Z,18.28
2019-06-20T01:28:26.608Z,18.35
2019-06-20T01:30:57.201Z,17.80
2019-06-20T01:33:26.491Z,17.80
2019-06-20T01:35:55.881Z,17.94
2019-06-20T01:38:26.975Z,17.73
2019-06-20T01:40:56.311Z,17.95
2019-06-20T01:43:25.649Z,17.99
2019-06-20T01:45:54.959Z,17.50
2019-06-20T01:48:24.276Z,17.66
2019-06-20T01:50:53.547Z,17.63
2019-06-20T01:53:22.864Z,17.66
2019-06-20T01:55:52.139Z,17.53
2019-06-20T01:58:21.411Z,17.65
2019-06-20T02:00:51.433Z,17.84
2019-06-20T02:03:21.736Z,17.62
2019-06-20T02:05:51.164Z,17.75
2019-06-20T02:08:20.560Z,17.74
2019-06-20T02:10:49.858Z,17.65
2019-06-20T02:13:19.232Z,17.62
2019-06-20T02:15:49.636Z,17.73
2019-06-20T02:18:18.899Z,17.33
2019-06-20T02:20:52.172Z,17.44
2019-06-20T02:23:21.783Z,17.54
2019-06-20T02:25:51.300Z,17.62
2019-06-20T02:28:20.789Z,17.48
2019-06-20T02:30:51.542Z,17.35
2019-06-20T02:33:20.963Z,17.54
2019-06-20T02:35:51.408Z,17.47
2019-06-20T02:38:22.565Z,17.73
2019-06-20T02:40:51.840Z,17.57
2019-06-20T02:43:22.368Z,17.22
2019-06-20T02:45:51.794Z,17.64
2019-06-20T02:48:21.236Z,17.29
2019-06-20T02:50:50.616Z,17.53
2019-06-20T02:53:21.356Z,17.40
2019-06-20T02:55:50.608Z,17.31
2019-06-20T02:58:19.888Z,17.39
2019-06-20T03:00:57.653Z,17.23
2019-06-20T03:03:28.565Z,17.33
2019-06-20T03:05:58.354Z,17.31
2019-06-20T03:08:27.963Z,17.08
2019-06-20T03:10:57.543Z,17.19
2019-06-20T03:13:27.673Z,17.34
2019-06-20T03:15:57.193Z,17.74
2019-06-20T03:18:26.456Z,17.64
2019-06-20T03:20:55.753Z,17.85
2019-06-20T03:23:25.051Z,17.74
2019-06-20T03:25:54.370Z,17.75
2019-06-20T03:28:23.678Z,17.66
2019-06-20T03:30:53.009Z,17.55
2019-06-20T03:33:22.368Z,17.92
2019-06-20T03:35:51.611Z,17.99
2019-06-20T03:38:21.135Z,17.76
2019-06-20T03:40:50.403Z,17.94
2019-06-20T03:43:19.691Z,17.93
2019-06-20T03:45:48.941Z,17.91
2019-06-20T03:48:18.208Z,17.91
2019-06-20T03:50:47.470Z,18.30
2019-06-20T03:53:16.729Z,18.21
2019-06-20T03:55:46.013Z,18.34
2019-06-20T03:58:15.286Z,18.21
2019-06-20T04:00:44.586Z,17.89
2019-06-20T04:03:13.929Z,17.90
2019-06-20T04:05:43.202Z,18.03
2019-06-20T04:08:12.457Z,18.27
2019-06-20T04:10:41.924Z,18.68
2019-06-20T04:13:11.235Z,18.42
2019-06-20T04:15:40.578Z,18.35
2019-06-20T04:18:09.842Z,18.48
2019-06-20T04:20:39.341Z,18.75
2019-06-20T04:23:08.659Z,18.67
2019-06-20T04:25:38.123Z,18.59
2019-06-20T04:28:07.463Z,18.66
2019-06-20T04:30:36.716Z,18.97
2019-06-20T04:33:06.036Z,18.54
2019-06-20T04:35:35.330Z,18.70
2019-06-20T04:38:04.616Z,18.69
2019-06-20T04:40:33.923Z,18.77
2019-06-20T04:43:03.220Z,18.73
2019-06-20T04:46:03.672Z,18.94
2019-06-20T04:48:32.914Z,18.99
2019-06-20T04:51:02.233Z,18.84
2019-06-20T04:53:31.735Z,18.56
2019-06-20T04:56:01.034Z,18.63
2019-06-20T04:58:30.418Z,18.82
2019-06-20T05:00:59.752Z,18.62
2019-06-20T05:03:29.107Z,19.07
2019-06-20T05:05:58.370Z,18.77
2019-06-20T05:08:27.685Z,18.64
2019-06-20T05:10:56.991Z,18.77
2019-06-20T05:13:26.385Z,18.53
2019-06-20T05:15:55.671Z,18.71
2019-06-20T05:18:24.957Z,18.61
2019-06-20T05:20:54.276Z,18.45
2019-06-20T05:23:23.585Z,18.80
2019-06-20T05:25:52.939Z,18.95
2019-06-20T05:28:22.216Z,18.67
2019-06-20T05:30:51.600Z,18.40
2019-06-20T05:33:20.936Z,18.75
2019-06-20T05:35:50.304Z,18.88
2019-06-20T05:38:19.747Z,19.04
2019-06-20T05:40:50.595Z,18.77
2019-06-20T05:43:19.929Z,18.92
2019-06-20T05:45:49.359Z,18.76
2019-06-20T05:48:18.904Z,18.74
2019-06-20T05:50:48.605Z,18.62
2019-06-20T05:53:18.022Z,18.69
2019-06-20T05:55:47.303Z,19.24
2019-06-20T05:58:16.708Z,19.02
2019-06-20T06:00:46.050Z,19.13
2019-06-20T06:03:16.015Z,18.75
2019-06-20T06:05:45.475Z,18.92
2019-06-20T06:08:14.903Z,18.75
2019-06-20T06:10:44.233Z,19.12
2019-06-20T06:13:13.719Z,19.06
2019-06-20T06:15:43.092Z,18.39
2019-06-20T06:18:12.445Z,18.34
2019-06-20T06:20:44.811Z,18.49
2019-06-20T06:23:13.026Z,18.89
2019-06-20T06:25:43.137Z,18.78
2019-06-20T06:28:12.818Z,18.59
2019-06-20T06:30:43.901Z,19.06
2019-06-20T06:33:13.432Z,18.98
2019-06-20T06:35:42.978Z,18.61
2019-06-20T06:38:12.312Z,18.99
2019-06-20T06:40:41.711Z,18.74
2019-06-20T06:43:11.012Z,19.12
2019-06-20T06:45:40.288Z,18.77
2019-06-20T06:48:09.696Z,18.91
2019-06-20T06:50:39.374Z,19.43
2019-06-20T06:53:08.857Z,19.18
2019-06-20T06:55:38.267Z,19.16
2019-06-20T06:58:07.742Z,19.24
2019-06-20T07:00:37.212Z,19.06
2019-06-20T07:03:06.558Z,19.34
2019-06-20T07:05:36.342Z,19.39
2019-06-20T07:08:05.892Z,19.73
2019-06-20T07:10:35.302Z,19.29
2019-06-20T07:13:04.681Z,19.54
2019-06-20T07:15:33.965Z,19.21
2019-06-20T07:18:03.399Z,19.21
2019-06-20T07:20:32.760Z,19.54
2019-06-20T07:23:02.099Z,19.47
2019-06-20T07:25:31.443Z,19.43
2019-06-20T07:28:00.846Z,19.98
2019-06-20T07:30:30.230Z,19.72
2019-06-20T07:32:59.712Z,19.54
2019-06-20T07:35:29.102Z,19.83
2019-06-20T07:37:58.534Z,20.28
2019-06-20T07:40:28.003Z,20.15
2019-06-20T07:42:57.355Z,20.50
2019-06-20T07:45:27.924Z,20.66
2019-06-20T07:47:57.379Z,20.45
2019-06-20T07:50:26.879Z,20.95
2019-06-20T07:53:02.356Z,20.86
2019-06-20T07:55:29.601Z,20.59
2019-06-20T07:57:59.035Z,20.24
2019-06-20T08:00:28.987Z,20.73
2019-06-20T08:02:58.468Z,20.77
2019-06-20T08:05:28.055Z,20.48
2019-06-20T08:07:57.680Z,20.45
2019-06-20T08:10:27.444Z,20.80
2019-06-20T08:12:57.043Z,21.00
2019-06-20T08:15:26.904Z,20.73
2019-06-20T08:17:56.408Z,20.69
2019-06-20T08:20:26.106Z,21.06
2019-06-20T08:22:55.590Z,21.11
2019-06-20T08:25:26.673Z,20.99
2019-06-20T08:27:59.137Z,20.95
2019-06-20T08:30:30.526Z,21.37
2019-06-20T08:33:01.883Z,20.94
2019-06-20T08:35:32.924Z,20.92
2019-06-20T08:38:03.645Z,20.34
2019-06-20T08:40:40.920Z,20.13
2019-06-20T08:43:10.786Z,20.37
2019-06-20T08:45:42.619Z,20.50
2019-06-20T08:48:12.294Z,20.60
2019-06-20T08:50:41.916Z,20.83
2019-06-20T08:53:11.411Z,21.17
2019-06-20T08:55:41.204Z,21.47
2019-06-20T08:58:10.716Z,21.39
2019-06-20T09:00:40.399Z,21.43
2019-06-20T09:03:09.962Z,20.98
2019-06-20T09:05:39.488Z,20.98
2019-06-20T09:08:11.442Z,21.70
2019-06-20T09:10:41.126Z,21.27
2019-06-20T09:13:12.468Z,21.27
2019-06-20T09:15:43.441Z,21.06
2019-06-20T09:18:13.244Z,21.06
2019-06-20T09:20:43.082Z,20.88
2019-06-20T09:23:12.571Z,21.15
2019-06-20T09:25:42.260Z,20.82
2019-06-20T09:28:11.934Z,20.97
2019-06-20T09:30:42.434Z,20.97
2019-06-20T09:33:11.946Z,21.09
2019-06-20T09:35:41.347Z,20.88
2019-06-20T09:38:10.959Z,20.96
2019-06-20T09:40:40.746Z,21.14
2019-06-20T09:43:10.468Z,20.68
2019-06-20T09:45:39.990Z,20.42
2019-06-20T09:48:09.635Z,20.63
2019-06-20T09:50:39.047Z,21.06
2019-06-20T09:53:08.632Z,21.14
2019-06-20T09:55:38.597Z,20.52
2019-06-20T09:58:08.418Z,20.56
2019-06-20T10:00:39.267Z,20.56
2019-06-20T10:03:08.872Z,20.68
2019-06-20T10:05:38.313Z,21.19
2019-06-20T10:08:08.246Z,21.51
2019-06-20T10:10:37.994Z,21.65
2019-06-20T10:13:07.614Z,22.42
2019-06-20T10:15:38.492Z,22.47
2019-06-20T10:18:08.459Z,22.28
2019-06-20T10:20:39.188Z,22.05
2019-06-20T10:23:09.065Z,22.33
2019-06-20T10:25:38.919Z,22.12
2019-06-20T10:28:08.727Z,22.52
2019-06-20T10:30:38.173Z,22.14
2019-06-20T10:33:07.575Z,22.56
2019-06-20T10:35:36.915Z,22.34
2019-06-20T10:38:06.407Z,22.22
2019-06-20T10:40:35.834Z,21.90
2019-06-20T10:43:05.654Z,21.90
2019-06-20T10:45:37.803Z,21.82
2019-06-20T10:48:07.583Z,21.82
2019-06-20T10:50:39.155Z,22.04
2019-06-20T10:53:10.163Z,22.19
2019-06-20T10:55:40.495Z,22.09
2019-06-20T10:58:11.666Z,22.09
2019-06-20T11:00:41.697Z,22.75
2019-06-20T11:03:12.854Z,22.89
2019-06-20T11:05:43.819Z,22.58
2019-06-20T11:08:13.336Z,22.27
2019-06-20T11:10:43.597Z,22.66
2019-06-20T11:13:14.489Z,22.73
2019-06-20T11:15:44.106Z,22.74
2019-06-20T11:18:13.704Z,22.57
2019-06-20T11:20:44.867Z,22.78
2019-06-20T11:23:14.336Z,23.21
2019-06-20T11:25:43.948Z,22.89
2019-06-20T11:28:13.320Z,22.60
2019-06-20T11:30:53.961Z,22.79
2019-06-20T11:33:14.169Z,23.01
2019-06-20T11:35:43.543Z,22.97
2019-06-20T11:38:13.455Z,22.78
2019-06-20T11:40:43.887Z,23.29
2019-06-20T11:43:13.634Z,23.20
2019-06-20T11:45:43.306Z,23.57
2019-06-20T11:48:12.611Z,23.78
2019-06-20T11:50:42.447Z,24.16
2019-06-20T11:53:13.946Z,24.36
2019-06-20T11:55:43.601Z,24.82
2019-06-20T11:58:12.967Z,25.28
2019-06-20T12:00:42.333Z,24.88
2019-06-20T12:03:11.757Z,24.85
2019-06-20T12:05:41.904Z,25.13
2019-06-20T12:08:12.421Z,24.22
2019-06-20T12:10:43.062Z,23.72
2019-06-20T12:13:12.557Z,24.68
2019-06-20T12:15:42.829Z,24.46
2019-06-20T12:18:12.625Z,24.53
2019-06-20T12:20:42.866Z,24.29
2019-06-20T12:23:12.620Z,24.55
2019-06-20T12:25:42.700Z,25.08
2019-06-20T12:28:12.226Z,25.77
2019-06-20T12:30:43.421Z,26.15
2019-06-20T12:33:12.959Z,26.29
2019-06-20T12:35:42.749Z,25.99
2019-06-20T12:38:15.117Z,25.28
2019-06-20T12:40:44.161Z,25.15
2019-06-20T12:43:13.615Z,24.87
2019-06-20T12:45:43.039Z,24.65
2019-06-20T12:48:12.528Z,24.87
2019-06-20T12:50:43.041Z,25.54
2019-06-20T12:53:13.934Z,25.85
2019-06-20T12:55:45.463Z,25.65
2019-06-20T12:58:15.619Z,25.87
2019-06-20T13:00:46.531Z,26.54
2019-06-20T13:03:16.304Z,26.40
2019-06-20T13:05:46.995Z,26.77
2019-06-20T13:08:17.744Z,26.11
2019-06-20T13:10:48.292Z,26.35
2019-06-20T13:13:17.749Z,25.59
2019-06-20T13:15:47.389Z,25.40
2019-06-20T13:18:16.761Z,25.30
2019-06-20T13:20:59.814Z,26.28
2019-06-20T13:23:29.230Z,26.89
2019-06-20T13:25:58.581Z,26.12
2019-06-20T13:28:28.123Z,26.77
2019-06-20T13:30:57.568Z,27.17
2019-06-20T13:33:28.730Z,27.73
2019-06-20T13:35:58.255Z,27.23
2019-06-20T13:38:27.552Z,27.67
2019-06-20T13:40:57.180Z,27.80
2019-06-20T13:43:26.692Z,27.51
2019-06-20T13:45:56.147Z,28.27
2019-06-20T13:48:25.560Z,27.45
2019-06-20T13:50:55.036Z,26.79
2019-06-20T13:53:24.371Z,26.87
2019-06-20T13:55:53.748Z,26.90
2019-06-20T13:58:23.093Z,27.98
2019-06-20T14:00:54.677Z,28.10
2019-06-20T14:03:24.203Z,28.50
2019-06-20T14:05:53.737Z,27.94
2019-06-20T14:08:23.436Z,27.65
2019-06-20T14:10:54.373Z,27.49
2019-06-20T14:13:25.878Z,28.81
2019-06-20T14:15:55.183Z,29.95
2019-06-20T14:18:24.482Z,29.92
2019-06-20T14:20:55.256Z,32.27
2019-06-20T14:23:24.841Z,31.15
2019-06-20T14:25:54.187Z,31.59
2019-06-20T14:28:23.525Z,27.99
2019-06-20T14:30:53.056Z,34.91
2019-06-20T14:33:22.806Z,34.43
2019-06-20T14:35:52.544Z,31.89
2019-06-20T14:38:23.558Z,31.74
2019-06-20T14:40:54.566Z,34.76
2019-06-20T14:43:24.956Z,34.24
2019-06-20T14:45:56.478Z,36.87
2019-06-20T14:48:26.413Z,41.43
2019-06-20T14:50:57.190Z,38.45
2019-06-20T14:53:27.034Z,40.33
2019-06-20T14:55:56.688Z,42.24
2019-06-20T14:58:27.302Z,42.95
2019-06-20T15:00:57.590Z,43.02
2019-06-20T15:03:27.399Z,32.84
2019-06-20T15:05:57.167Z,30.75
2019-06-20T15:08:26.538Z,30.50
2019-06-20T15:10:55.895Z,33.87
2019-06-20T15:13:25.913Z,31.43
2019-06-20T15:15:55.858Z,30.12
2019-06-20T15:18:25.581Z,29.88
2019-06-20T15:20:59.191Z,30.22
2019-06-20T15:23:26.581Z,29.54
2019-06-20T15:25:56.211Z,28.63
2019-06-20T15:28:26.044Z,28.91
2019-06-20T15:30:57.174Z,29.37
2019-06-20T15:33:27.214Z,28.62
2019-06-20T15:35:58.079Z,28.95
2019-06-20T15:38:27.762Z,27.52
2019-06-20T15:40:57.667Z,26.18
2019-06-20T15:43:27.519Z,26.67
2019-06-20T15:45:58.374Z,26.39
2019-06-20T15:48:28.208Z,25.66
2019-06-20T15:50:58.278Z,25.41
2019-06-20T15:53:28.023Z,25.77
2019-06-20T15:55:57.662Z,25.37
2019-06-20T15:58:27.297Z,24.98
2019-06-20T16:00:57.984Z,25.07
2019-06-20T16:03:27.576Z,24.87
2019-06-20T16:05:57.344Z,24.91
2019-06-20T16:08:27.218Z,24.88
2019-06-20T16:10:57.238Z,25.23
2019-06-20T16:13:26.774Z,24.55
2019-06-20T16:15:56.183Z,24.80
2019-06-20T16:18:25.788Z,24.62
2019-06-20T16:20:55.212Z,24.37
2019-06-20T16:23:24.987Z,24.40
2019-06-20T16:25:54.687Z,23.95
2019-06-20T16:28:24.432Z,24.00
2019-06-20T16:31:07.948Z,24.41
2019-06-20T16:33:25.901Z,24.57
2019-06-20T16:35:55.719Z,24.22
2019-06-20T16:38:25.194Z,24.36
2019-06-20T16:40:55.105Z,24.22
2019-06-20T16:43:24.934Z,24.14
2019-06-20T16:45:54.445Z,24.56
2019-06-20T16:48:23.878Z,24.70
2019-06-20T16:50:53.683Z,23.99
2019-06-20T16:53:23.349Z,24.06
2019-06-20T16:55:53.137Z,24.16
2019-06-20T16:58:24.048Z,23.39
2019-06-20T17:00:54.203Z,23.43
2019-06-20T17:03:38.069Z,23.40
2019-06-20T17:05:55.697Z,23.36
2019-06-20T17:08:26.015Z,23.11
2019-06-20T17:10:55.817Z,23.12
2019-06-20T17:13:25.250Z,23.60
2019-06-20T17:15:55.528Z,23.88
2019-06-20T17:18:24.998Z,23.40
2019-06-20T17:20:55.331Z,23.69
2019-06-20T17:23:25.115Z,23.81
2019-06-20T17:25:54.878Z,23.79
2019-06-20T17:28:24.872Z,23.39
2019-06-20T17:30:54.435Z,23.45
2019-06-20T17:33:23.992Z,23.62
2019-06-20T17:35:53.602Z,23.39
2019-06-20T17:38:23.163Z,23.37
2019-06-20T17:40:52.732Z,23.01
2019-06-20T17:43:22.118Z,23.06
2019-06-20T17:45:51.490Z,23.28
2019-06-20T17:48:20.917Z,23.50
2019-06-20T17:50:50.319Z,23.16
2019-06-20T17:53:21.479Z,23.78
2019-06-20T17:55:50.861Z,23.39
2019-06-20T17:58:20.405Z,23.26
2019-06-20T18:00:49.860Z,23.41
2019-06-20T18:03:19.398Z,23.78
2019-06-20T18:05:48.918Z,23.63
2019-06-20T18:08:19.093Z,23.16
2019-06-20T18:10:48.868Z,23.04
2019-06-20T18:13:18.560Z,23.24
2019-06-20T18:16:06.105Z,23.15
2019-06-20T18:18:57.481Z,23.25
2019-06-20T18:21:42.501Z,23.04
2019-06-20T18:24:29.120Z,23.02
2019-06-20T18:27:18.674Z,22.81
2019-06-20T18:30:07.057Z,22.51
2019-06-20T18:32:54.426Z,22.37
2019-06-20T18:35:56.543Z,22.62
2019-06-20T18:38:48.032Z,22.54
2019-06-20T18:41:40.182Z,22.58
2019-06-20T18:44:41.405Z,21.97
2019-06-20T18:48:01.892Z,22.22
2019-06-20T18:50:52.298Z,21.99
2019-06-20T18:53:50.484Z,21.72
2019-06-20T18:56:36.746Z,21.79
2019-06-20T18:59:27.643Z,21.64
2019-06-20T19:02:27.143Z,21.75
2019-06-20T19:05:47.335Z,21.82
2019-06-20T19:09:18.719Z,21.97
2019-06-20T19:12:37.433Z,21.94
2019-06-20T19:15:36.991Z,21.90
2019-06-20T19:18:47.601Z,21.52
2019-06-20T19:25:25.158Z,21.60
2019-06-20T19:27:55.042Z,21.60
2019-06-20T19:30:33.668Z,21.60
2019-06-20T19:33:03.496Z,21.66
2019-06-20T19:35:53.716Z,21.45
2019-06-20T19:39:14.206Z,21.26
2019-06-20T19:42:20.500Z,21.49
2019-06-20T19:45:22.853Z,21.30
2019-06-20T19:47:52.909Z,21.04
2019-06-20T19:50:33.767Z,21.04
2019-06-20T19:53:52.461Z,21.25
2019-06-20T19:57:16.557Z,21.31
2019-06-20T20:00:36.743Z,21.06
2019-06-20T20:03:54.390Z,21.30
2019-06-20T20:07:47.307Z,20.93
2019-06-20T20:11:57.015Z,21.01
2019-06-20T20:15:34.224Z,20.90
2019-06-20T20:18:32.258Z,21.01
2019-06-20T20:21:02.987Z,20.67
2019-06-20T20:23:34.146Z,20.67
2019-06-20T20:26:08.568Z,20.64
2019-06-20T20:28:36.707Z,21.00
2019-06-20T20:31:06.344Z,20.65
2019-06-20T20:33:36.038Z,20.51
2019-06-20T20:36:05.585Z,20.49
2019-06-20T20:38:35.607Z,20.24
2019-06-20T20:41:05.049Z,20.32
2019-06-20T20:43:34.530Z,20.22
2019-06-20T20:46:04.264Z,20.16
2019-06-20T20:48:33.818Z,20.03
2019-06-20T20:51:03.408Z,19.97
2019-06-20T20:53:33.700Z,19.90
2019-06-20T20:56:03.262Z,20.03
2019-06-20T20:58:34.493Z,20.13
2019-06-20T21:01:22.086Z,20.09
2019-06-20T21:03:51.774Z,20.13
2019-06-20T21:06:21.364Z,19.72
2019-06-20T21:08:51.098Z,20.04
2019-06-20T21:11:20.883Z,19.81
2019-06-20T21:13:50.300Z,19.96
2019-06-20T21:16:19.780Z,20.14
2019-06-20T21:18:49.154Z,19.63
2019-06-20T21:21:18.694Z,19.83
2019-06-20T21:23:48.094Z,19.82
2019-06-20T21:26:17.688Z,19.77
2019-06-20T21:28:59.232Z,19.45
2019-06-20T21:31:39.900Z,19.56
2019-06-20T21:34:23.274Z,19.75
2019-06-20T21:37:09.599Z,19.50
2019-06-20T21:39:47.239Z,19.57
2019-06-20T21:43:15.665Z,19.18
2019-06-20T21:45:58.243Z,19.39
2019-06-20T21:48:42.522Z,18.76
2019-06-20T21:51:14.243Z,19.21
2019-06-20T21:53:43.619Z,19.13
2019-06-20T21:56:13.055Z,19.03
2019-06-20T21:58:42.393Z,19.44
2019-06-20T22:01:11.886Z,18.73
2019-06-20T22:03:41.226Z,18.78
2019-06-20T22:06:22.909Z,18.81
2019-06-20T22:08:41.676Z,18.75
2019-06-20T22:11:11.089Z,18.80
2019-06-20T22:13:42.061Z,18.39
2019-06-20T22:16:11.491Z,18.80
2019-06-20T22:18:40.874Z,18.59
2019-06-20T22:21:10.292Z,18.53
2019-06-20T22:23:39.737Z,18.57
2019-06-20T22:26:09.082Z,18.39
2019-06-20T22:28:38.369Z,18.65
2019-06-20T22:31:08.185Z,18.32
2019-06-20T22:33:37.539Z,18.43
2019-06-20T22:36:06.979Z,18.20
2019-06-20T22:38:36.851Z,18.26
2019-06-20T22:41:06.202Z,18.22
2019-06-20T22:43:35.540Z,18.12
2019-06-20T22:46:05.391Z,17.90
2019-06-20T22:48:34.674Z,18.40
2019-06-20T22:51:04.128Z,18.61
2019-06-20T22:53:33.383Z,18.63
2019-06-20T22:56:02.901Z,18.77
2019-06-20T22:58:32.393Z,18.96
2019-06-20T23:01:01.913Z,18.96
2019-06-20T23:03:31.329Z,18.64
2019-06-20T23:06:00.607Z,18.86
2019-06-20T23:08:31.318Z,18.96
2019-06-20T23:11:00.881Z,18.61
2019-06-20T23:13:30.175Z,18.69
2019-06-20T23:16:01.367Z,18.81
2019-06-20T23:18:31.568Z,18.59
2019-06-20T23:21:04.851Z,18.51
2019-06-20T23:23:31.979Z,18.58
2019-06-20T23:26:03.236Z,18.35
2019-06-20T23:28:32.700Z,18.10
2019-06-20T23:31:02.048Z,18.01
2019-06-20T23:33:31.464Z,18.00
2019-06-20T23:36:00.870Z,18.08
2019-06-20T23:38:30.321Z,18.09
2019-06-20T23:40:59.687Z,17.98
2019-06-20T23:43:28.972Z,18.03
2019-06-20T23:45:58.356Z,18.01
2019-06-20T23:48:27.626Z,18.04
2019-06-20T23:50:56.901Z,18.02
2019-06-20T23:53:27.357Z,17.98
2019-06-20T23:55:56.659Z,18.20
2019-06-20T23:58:25.936Z,17.79
